sensor_id;sensor_type;location;lat;lon;timestamp;temperature;humidity
6373;DHT22;3219;51.362;7.074;2023-06-10T00:01:15;20.00;99.90
6373;DHT22;3219;51.362;7.074;2023-06-10T00:03:43;20.00;99.90
6373;DHT22;3219;51.362;7.074;2023-06-10T00:06:10;20.00;99.90
6373;DHT22;3219;51.362;7.074;2023-06-10T00:08:36;20.00;99.90
6373;DHT22;3219;51.362;7.074;2023-06-10T00:11:05;20.00;99.90
6373;DHT22;3219;51.362;7.074;2023-06-10T00:13:32;20.00;99.90
6373;DHT22;3219;51.362;7.074;2023-06-10T00:15:59;20.00;99.90
6373;DHT22;3219;51.362;7.074;2023-06-10T00:18:26;20.00;99.90
6373;DHT22;3219;51.362;7.074;2023-06-10T00:20:56;20.00;99.90
6373;DHT22;3219;51.362;7.074;2023-06-10T00:23:28;19.90;99.90
6373;DHT22;3219;51.362;7.074;2023-06-10T00:25:56;19.90;99.90
6373;DHT22;3219;51.362;7.074;2023-06-10T00:30:50;19.80;99.90
6373;DHT22;3219;51.362;7.074;2023-06-10T00:33:18;20.00;99.90
6373;DHT22;3219;51.362;7.074;2023-06-10T00:35:44;19.90;99.90
6373;DHT22;3219;51.362;7.074;2023-06-10T00:38:13;19.90;99.90
6373;DHT22;3219;51.362;7.074;2023-06-10T00:40:40;19.90;99.90
6373;DHT22;3219;51.362;7.074;2023-06-10T00:43:07;19.90;99.90
6373;DHT22;3219;51.362;7.074;2023-06-10T00:45:34;19.80;99.90
6373;DHT22;3219;51.362;7.074;2023-06-10T00:48:01;19.80;99.90
6373;DHT22;3219;51.362;7.074;2023-06-10T00:50:28;19.80;99.90
6373;DHT22;3219;51.362;7.074;2023-06-10T00:52:56;19.70;99.90
6373;DHT22;3219;51.362;7.074;2023-06-10T00:55:25;19.80;99.90
6373;DHT22;3219;51.362;7.074;2023-06-10T00:57:52;19.70;99.90
6373;DHT22;3219;51.362;7.074;2023-06-10T01:00:19;19.70;99.90
6373;DHT22;3219;51.362;7.074;2023-06-10T01:02:46;19.70;99.90
6373;DHT22;3219;51.362;7.074;2023-06-10T01:05:13;19.70;99.90
6373;DHT22;3219;51.362;7.074;2023-06-10T01:07:43;19.50;99.90
6373;DHT22;3219;51.362;7.074;2023-06-10T01:10:20;19.60;99.90
6373;DHT22;3219;51.362;7.074;2023-06-10T01:12:55;19.60;99.90
6373;DHT22;3219;51.362;7.074;2023-06-10T01:15:25;19.60;99.90
6373;DHT22;3219;51.362;7.074;2023-06-10T01:17:56;19.50;99.90
6373;DHT22;3219;51.362;7.074;2023-06-10T01:20:23;19.60;99.90
6373;DHT22;3219;51.362;7.074;2023-06-10T01:22:53;19.60;99.90
6373;DHT22;3219;51.362;7.074;2023-06-10T01:25:21;19.60;99.90
6373;DHT22;3219;51.362;7.074;2023-06-10T01:27:55;19.50;99.90
6373;DHT22;3219;51.362;7.074;2023-06-10T01:32:58;19.30;99.90
6373;DHT22;3219;51.362;7.074;2023-06-10T01:35:26;19.30;99.90
6373;DHT22;3219;51.362;7.074;2023-06-10T01:37:57;19.40;99.90
6373;DHT22;3219;51.362;7.074;2023-06-10T01:40:25;19.30;99.90
6373;DHT22;3219;51.362;7.074;2023-06-10T01:42:53;19.30;99.90
6373;DHT22;3219;51.362;7.074;2023-06-10T01:45:19;19.30;99.90
6373;DHT22;3219;51.362;7.074;2023-06-10T01:47:46;19.30;99.90
6373;DHT22;3219;51.362;7.074;2023-06-10T01:50:13;19.20;99.90
6373;DHT22;3219;51.362;7.074;2023-06-10T01:52:40;19.20;99.90
6373;DHT22;3219;51.362;7.074;2023-06-10T02:05:00;18.90;99.90
6373;DHT22;3219;51.362;7.074;2023-06-10T02:07:30;19.00;99.90
6373;DHT22;3219;51.362;7.074;2023-06-10T02:19:50;18.90;99.90
6373;DHT22;3219;51.362;7.074;2023-06-10T02:29:45;18.80;99.90
6373;DHT22;3219;51.362;7.074;2023-06-10T06:04:23;24.10;98.80
6373;DHT22;3219;51.362;7.074;2023-06-10T06:06:49;24.00;98.30
6373;DHT22;3219;51.362;7.074;2023-06-10T06:09:16;24.00;99.00
6373;DHT22;3219;51.362;7.074;2023-06-10T06:11:44;24.00;98.90
6373;DHT22;3219;51.362;7.074;2023-06-10T06:14:11;24.00;99.90
6373;DHT22;3219;51.362;7.074;2023-06-10T06:16:38;24.10;99.90
6373;DHT22;3219;51.362;7.074;2023-06-10T06:19:05;24.40;99.90
6373;DHT22;3219;51.362;7.074;2023-06-10T06:21:32;24.60;99.90
6373;DHT22;3219;51.362;7.074;2023-06-10T06:23:59;24.70;99.90
6373;DHT22;3219;51.362;7.074;2023-06-10T06:26:26;24.70;99.90
6373;DHT22;3219;51.362;7.074;2023-06-10T06:28:54;24.70;99.90
6373;DHT22;3219;51.362;7.074;2023-06-10T06:31:20;24.70;99.90
6373;DHT22;3219;51.362;7.074;2023-06-10T06:33:47;24.70;99.90
6373;DHT22;3219;51.362;7.074;2023-06-10T06:36:14;24.70;98.20
6373;DHT22;3219;51.362;7.074;2023-06-10T06:38:40;24.90;99.90
6373;DHT22;3219;51.362;7.074;2023-06-10T06:41:07;25.00;99.90
6373;DHT22;3219;51.362;7.074;2023-06-10T06:43:34;25.20;99.90
6373;DHT22;3219;51.362;7.074;2023-06-10T06:46:02;25.30;99.90
6373;DHT22;3219;51.362;7.074;2023-06-10T06:48:29;25.50;99.90
6373;DHT22;3219;51.362;7.074;2023-06-10T06:50:55;25.60;99.90
6373;DHT22;3219;51.362;7.074;2023-06-10T06:53:23;25.80;99.90
6373;DHT22;3219;51.362;7.074;2023-06-10T06:55:50;25.70;99.90
6373;DHT22;3219;51.362;7.074;2023-06-10T06:58:17;25.80;99.90
6373;DHT22;3219;51.362;7.074;2023-06-10T07:00:44;25.70;99.90
6373;DHT22;3219;51.362;7.074;2023-06-10T07:05:39;25.60;99.00
6373;DHT22;3219;51.362;7.074;2023-06-10T07:08:06;25.50;98.50
6373;DHT22;3219;51.362;7.074;2023-06-10T07:10:33;25.50;98.90
6373;DHT22;3219;51.362;7.074;2023-06-10T07:13:00;25.60;98.90
6373;DHT22;3219;51.362;7.074;2023-06-10T07:15:27;25.60;99.20
6373;DHT22;3219;51.362;7.074;2023-06-10T07:17:54;25.50;99.90
6373;DHT22;3219;51.362;7.074;2023-06-10T07:20:22;25.60;99.90
6373;DHT22;3219;51.362;7.074;2023-06-10T07:22:49;25.70;99.90
6373;DHT22;3219;51.362;7.074;2023-06-10T07:25:15;26.00;99.90
6373;DHT22;3219;51.362;7.074;2023-06-10T07:27:42;25.90;99.90
6373;DHT22;3219;51.362;7.074;2023-06-10T07:32:37;25.90;99.90
6373;DHT22;3219;51.362;7.074;2023-06-10T07:35:08;26.00;99.90
6373;DHT22;3219;51.362;7.074;2023-06-10T07:37:36;26.20;99.90
6373;DHT22;3219;51.362;7.074;2023-06-10T07:40:05;26.00;99.90
6373;DHT22;3219;51.362;7.074;2023-06-10T07:42:34;26.10;99.90
6373;DHT22;3219;51.362;7.074;2023-06-10T07:45:01;26.20;99.90
6373;DHT22;3219;51.362;7.074;2023-06-10T07:47:27;26.30;99.90
6373;DHT22;3219;51.362;7.074;2023-06-10T07:49:54;26.30;99.90
6373;DHT22;3219;51.362;7.074;2023-06-10T07:52:21;26.30;99.90
6373;DHT22;3219;51.362;7.074;2023-06-10T07:54:49;26.20;99.90
6373;DHT22;3219;51.362;7.074;2023-06-10T08:02:11;26.00;99.90
6373;DHT22;3219;51.362;7.074;2023-06-10T08:04:38;26.50;99.90
6373;DHT22;3219;51.362;7.074;2023-06-10T08:36:38;26.70;99.90
6373;DHT22;3219;51.362;7.074;2023-06-10T08:39:05;26.80;99.90
6373;DHT22;3219;51.362;7.074;2023-06-10T08:41:35;26.60;99.90
6373;DHT22;3219;51.362;7.074;2023-06-10T08:44:09;26.50;99.90
6373;DHT22;3219;51.362;7.074;2023-06-10T08:46:39;26.50;99.90
6373;DHT22;3219;51.362;7.074;2023-06-10T08:49:09;26.70;99.90
6373;DHT22;3219;51.362;7.074;2023-06-10T08:51:37;26.80;99.90
6373;DHT22;3219;51.362;7.074;2023-06-10T09:51:10;27.80;97.40
6373;DHT22;3219;51.362;7.074;2023-06-10T09:53:37;27.90;98.70
6373;DHT22;3219;51.362;7.074;2023-06-10T09:56:04;27.80;98.60
6373;DHT22;3219;51.362;7.074;2023-06-10T09:58:36;27.70;99.90
6373;DHT22;3219;51.362;7.074;2023-06-10T10:01:08;27.70;99.90
6373;DHT22;3219;51.362;7.074;2023-06-10T10:08:40;27.60;95.00
6373;DHT22;3219;51.362;7.074;2023-06-10T10:11:07;27.80;97.40
6373;DHT22;3219;51.362;7.074;2023-06-10T10:13:36;27.70;96.60
6373;DHT22;3219;51.362;7.074;2023-06-10T10:16:06;27.70;96.60
6373;DHT22;3219;51.362;7.074;2023-06-10T10:18:35;27.80;97.20
6373;DHT22;3219;51.362;7.074;2023-06-10T10:21:07;27.80;96.90
6373;DHT22;3219;51.362;7.074;2023-06-10T10:23:41;27.90;97.00
6373;DHT22;3219;51.362;7.074;2023-06-10T10:26:11;27.90;97.20
6373;DHT22;3219;51.362;7.074;2023-06-10T10:28:45;28.00;97.10
6373;DHT22;3219;51.362;7.074;2023-06-10T10:31:15;28.10;97.40
6373;DHT22;3219;51.362;7.074;2023-06-10T10:33:52;28.20;98.00
6373;DHT22;3219;51.362;7.074;2023-06-10T10:36:22;28.30;98.40
6373;DHT22;3219;51.362;7.074;2023-06-10T10:38:49;28.10;98.00
6373;DHT22;3219;51.362;7.074;2023-06-10T10:41:16;28.00;98.30
6373;DHT22;3219;51.362;7.074;2023-06-10T10:43:46;28.00;98.10
6373;DHT22;3219;51.362;7.074;2023-06-10T10:46:16;28.10;98.00
6373;DHT22;3219;51.362;7.074;2023-06-10T10:48:43;28.20;98.50
6373;DHT22;3219;51.362;7.074;2023-06-10T10:51:11;28.20;99.20
6373;DHT22;3219;51.362;7.074;2023-06-10T10:53:38;28.20;98.40
6373;DHT22;3219;51.362;7.074;2023-06-10T10:56:06;28.20;97.70
6373;DHT22;3219;51.362;7.074;2023-06-10T10:58:33;28.20;98.50
6373;DHT22;3219;51.362;7.074;2023-06-10T11:01:10;28.30;98.60
6373;DHT22;3219;51.362;7.074;2023-06-10T11:03:42;28.40;99.10
6373;DHT22;3219;51.362;7.074;2023-06-10T11:06:12;28.50;99.90
6373;DHT22;3219;51.362;7.074;2023-06-10T11:08:47;28.50;99.90
6373;DHT22;3219;51.362;7.074;2023-06-10T11:11:18;28.60;99.90
6373;DHT22;3219;51.362;7.074;2023-06-10T11:13:58;28.50;99.90
6373;DHT22;3219;51.362;7.074;2023-06-10T11:16:27;28.20;99.90
6373;DHT22;3219;51.362;7.074;2023-06-10T11:18:54;28.10;99.90
6373;DHT22;3219;51.362;7.074;2023-06-10T11:21:23;28.10;99.90
6373;DHT22;3219;51.362;7.074;2023-06-10T11:23:50;27.70;99.90
6373;DHT22;3219;51.362;7.074;2023-06-10T11:26:30;28.00;99.90
6373;DHT22;3219;51.362;7.074;2023-06-10T11:31:31;28.00;99.90
6373;DHT22;3219;51.362;7.074;2023-06-10T11:33:59;28.00;99.90
6373;DHT22;3219;51.362;7.074;2023-06-10T11:36:27;27.80;99.90
6373;DHT22;3219;51.362;7.074;2023-06-10T11:38:56;28.00;99.90
6373;DHT22;3219;51.362;7.074;2023-06-10T11:41:23;28.00;99.90
6373;DHT22;3219;51.362;7.074;2023-06-10T11:43:50;28.10;99.90
6373;DHT22;3219;51.362;7.074;2023-06-10T11:46:17;28.20;99.90
6373;DHT22;3219;51.362;7.074;2023-06-10T12:39:17;27.90;99.90
6373;DHT22;3219;51.362;7.074;2023-06-10T13:09:03;28.00;99.90
6373;DHT22;3219;51.362;7.074;2023-06-10T13:11:31;27.80;99.90
6373;DHT22;3219;51.362;7.074;2023-06-10T13:13:59;27.60;99.90
6373;DHT22;3219;51.362;7.074;2023-06-10T13:16:26;27.60;99.90
6373;DHT22;3219;51.362;7.074;2023-06-10T13:18:53;27.60;99.90
6373;DHT22;3219;51.362;7.074;2023-06-10T13:21:20;27.60;99.90
6373;DHT22;3219;51.362;7.074;2023-06-10T13:26:14;27.50;99.90
6373;DHT22;3219;51.362;7.074;2023-06-10T13:28:42;27.50;99.90
6373;DHT22;3219;51.362;7.074;2023-06-10T14:10:40;27.50;99.90
6373;DHT22;3219;51.362;7.074;2023-06-10T14:20:30;27.60;99.90
6373;DHT22;3219;51.362;7.074;2023-06-10T14:27:54;27.60;99.90
6373;DHT22;3219;51.362;7.074;2023-06-10T14:35:15;27.50;99.90
6373;DHT22;3219;51.362;7.074;2023-06-10T14:37:42;27.30;99.90
6373;DHT22;3219;51.362;7.074;2023-06-10T14:40:11;27.70;99.90
6373;DHT22;3219;51.362;7.074;2023-06-10T14:42:38;27.80;99.90
6373;DHT22;3219;51.362;7.074;2023-06-10T14:45:07;27.70;99.90
6373;DHT22;3219;51.362;7.074;2023-06-10T14:47:35;27.80;99.90
6373;DHT22;3219;51.362;7.074;2023-06-10T14:50:02;27.80;99.90
6373;DHT22;3219;51.362;7.074;2023-06-10T15:46:50;27.40;99.90
6373;DHT22;3219;51.362;7.074;2023-06-10T15:49:18;27.50;99.90
6373;DHT22;3219;51.362;7.074;2023-06-10T15:54:12;27.50;99.90
6373;DHT22;3219;51.362;7.074;2023-06-10T16:04:04;27.30;99.90
6373;DHT22;3219;51.362;7.074;2023-06-10T16:06:32;27.40;99.90
6373;DHT22;3219;51.362;7.074;2023-06-10T16:09:00;27.40;99.90
6373;DHT22;3219;51.362;7.074;2023-06-10T16:11:26;27.40;99.90
6373;DHT22;3219;51.362;7.074;2023-06-10T17:30:13;26.90;99.90
6373;DHT22;3219;51.362;7.074;2023-06-10T17:32:42;26.90;99.90
6373;DHT22;3219;51.362;7.074;2023-06-10T17:35:09;26.90;99.90
6373;DHT22;3219;51.362;7.074;2023-06-10T17:37:36;26.90;99.90
6373;DHT22;3219;51.362;7.074;2023-06-10T17:40:03;26.90;99.90
6373;DHT22;3219;51.362;7.074;2023-06-10T17:42:30;26.80;99.90
6373;DHT22;3219;51.362;7.074;2023-06-10T17:44:57;26.70;99.90
6373;DHT22;3219;51.362;7.074;2023-06-10T21:45:59;22.50;99.90
6373;DHT22;3219;51.362;7.074;2023-06-10T21:48:28;22.50;99.90
6373;DHT22;3219;51.362;7.074;2023-06-10T21:55:51;22.10;99.90
6373;DHT22;3219;51.362;7.074;2023-06-10T22:15:36;22.00;99.90
6373;DHT22;3219;51.362;7.074;2023-06-10T22:18:04;22.10;99.90
6373;DHT22;3219;51.362;7.074;2023-06-10T22:20:31;22.00;99.90
6373;DHT22;3219;51.362;7.074;2023-06-10T22:22:58;21.90;99.90
6373;DHT22;3219;51.362;7.074;2023-06-10T22:25:26;21.90;99.90
6373;DHT22;3219;51.362;7.074;2023-06-10T22:27:53;21.80;99.90
6373;DHT22;3219;51.362;7.074;2023-06-10T22:30:20;21.80;99.90
6373;DHT22;3219;51.362;7.074;2023-06-10T22:32:47;21.80;99.90
6373;DHT22;3219;51.362;7.074;2023-06-10T22:35:14;21.70;99.90
6373;DHT22;3219;51.362;7.074;2023-06-10T22:37:41;21.70;99.90
6373;DHT22;3219;51.362;7.074;2023-06-10T22:40:08;21.70;99.90
6373;DHT22;3219;51.362;7.074;2023-06-10T22:42:36;21.60;99.90
6373;DHT22;3219;51.362;7.074;2023-06-10T22:45:04;21.60;99.90
6373;DHT22;3219;51.362;7.074;2023-06-10T22:47:31;21.60;99.90
6373;DHT22;3219;51.362;7.074;2023-06-10T22:49:58;21.60;99.90
6373;DHT22;3219;51.362;7.074;2023-06-10T22:52:24;21.60;99.90
6373;DHT22;3219;51.362;7.074;2023-06-10T22:54:51;21.60;99.90
6373;DHT22;3219;51.362;7.074;2023-06-10T22:57:18;21.60;99.90
6373;DHT22;3219;51.362;7.074;2023-06-10T22:59:46;21.60;99.90
6373;DHT22;3219;51.362;7.074;2023-06-10T23:02:13;21.60;99.90
6373;DHT22;3219;51.362;7.074;2023-06-10T23:04:40;21.60;99.90
6373;DHT22;3219;51.362;7.074;2023-06-10T23:07:06;21.60;99.90
6373;DHT22;3219;51.362;7.074;2023-06-10T23:09:34;21.60;99.90
6373;DHT22;3219;51.362;7.074;2023-06-10T23:12:01;21.60;99.90
6373;DHT22;3219;51.362;7.074;2023-06-10T23:14:28;21.60;99.90
6373;DHT22;3219;51.362;7.074;2023-06-10T23:16:56;21.60;99.90
6373;DHT22;3219;51.362;7.074;2023-06-10T23:19:23;21.60;99.90
6373;DHT22;3219;51.362;7.074;2023-06-10T23:21:52;21.70;99.90
6373;DHT22;3219;51.362;7.074;2023-06-10T23:24:19;21.70;99.90
6373;DHT22;3219;51.362;7.074;2023-06-10T23:26:54;21.70;99.90
6373;DHT22;3219;51.362;7.074;2023-06-10T23:29:21;21.70;99.90
6373;DHT22;3219;51.362;7.074;2023-06-10T23:31:48;21.70;99.90
6373;DHT22;3219;51.362;7.074;2023-06-10T23:34:16;21.70;99.90
6373;DHT22;3219;51.362;7.074;2023-06-10T23:36:43;21.60;99.90
6373;DHT22;3219;51.362;7.074;2023-06-10T23:39:12;21.60;99.90
6373;DHT22;3219;51.362;7.074;2023-06-10T23:41:39;21.60;99.90
6373;DHT22;3219;51.362;7.074;2023-06-10T23:44:06;21.60;99.90
6373;DHT22;3219;51.362;7.074;2023-06-10T23:46:34;21.60;99.90
6373;DHT22;3219;51.362;7.074;2023-06-10T23:49:01;21.60;99.90
6373;DHT22;3219;51.362;7.074;2023-06-10T23:51:30;21.60;99.90
6373;DHT22;3219;51.362;7.074;2023-06-10T23:53:57;21.60;99.90
6373;DHT22;3219;51.362;7.074;2023-06-10T23:56:24;21.50;99.90
6373;DHT22;3219;51.362;7.074;2023-06-10T23:58:51;21.50;99.90
